createdAt,value
2023-05-28T00:00:17.320Z,1.58
2023-05-28T00:02:45.262Z,1.80
2023-05-28T00:05:12.373Z,1.80
2023-05-28T00:07:40.545Z,1.40
2023-05-28T00:10:08.135Z,1.80
2023-05-28T00:12:34.921Z,1.50
2023-05-28T00:15:01.575Z,1.67
2023-05-28T00:17:29.220Z,1.60
2023-05-28T00:19:55.961Z,1.70
2023-05-28T00:22:23.139Z,1.60
2023-05-28T00:24:49.850Z,1.58
2023-05-28T00:27:16.580Z,1.60
2023-05-28T00:29:44.808Z,1.55
2023-05-28T00:32:11.559Z,1.50
2023-05-28T00:34:38.227Z,1.30
2023-05-28T00:37:05.128Z,1.50
2023-05-28T00:39:31.784Z,1.50
2023-05-28T00:42:05.108Z,1.70
2023-05-28T00:44:34.558Z,1.58
2023-05-28T00:47:03.169Z,1.42
2023-05-28T00:49:30.088Z,1.75
2023-05-28T00:51:58.123Z,1.73
2023-05-28T00:54:25.655Z,1.48
2023-05-28T00:56:54.623Z,1.60
2023-05-28T00:59:25.460Z,1.90
2023-05-28T01:01:52.299Z,1.60
2023-05-28T01:04:19.135Z,1.73
2023-05-28T01:06:47.237Z,1.75
2023-05-28T01:09:14.612Z,1.70
2023-05-28T01:11:43.487Z,1.70
2023-05-28T01:14:12.919Z,1.85
2023-05-28T01:16:40.654Z,1.70
2023-05-28T01:19:10.354Z,1.80
2023-05-28T01:21:42.928Z,1.60
2023-05-28T01:24:10.651Z,1.70
2023-05-28T01:26:37.608Z,1.83
2023-05-28T01:29:15.158Z,1.58
2023-05-28T01:31:42.348Z,1.70
2023-05-28T01:34:10.351Z,1.63
2023-05-28T01:36:42.246Z,1.60
2023-05-28T01:39:13.403Z,1.50
2023-05-28T01:41:40.445Z,1.50
2023-05-28T01:44:08.397Z,1.63
2023-05-28T01:46:35.515Z,1.52
2023-05-28T01:49:02.501Z,1.70
2023-05-28T01:51:29.205Z,1.42
2023-05-28T01:53:55.872Z,1.60
2023-05-28T01:56:22.626Z,1.50
2023-05-28T01:58:49.259Z,1.45
2023-05-28T02:01:28.970Z,1.52
2023-05-28T02:03:59.091Z,1.30
2023-05-28T02:06:28.125Z,1.60
2023-05-28T02:08:54.831Z,1.40
2023-05-28T02:11:22.987Z,1.63
2023-05-28T02:13:50.021Z,1.48
2023-05-28T02:16:18.567Z,1.60
2023-05-28T02:18:46.240Z,1.70
2023-05-28T02:21:13.413Z,1.55
2023-05-28T02:23:45.465Z,1.55
2023-05-28T02:26:12.375Z,1.67
2023-05-28T02:28:39.140Z,1.67
2023-05-28T02:31:05.971Z,1.50
2023-05-28T02:33:34.305Z,1.50
2023-05-28T02:36:01.149Z,1.65
2023-05-28T02:38:27.869Z,1.70
2023-05-28T02:40:54.567Z,1.60
2023-05-28T02:43:21.222Z,1.80
2023-05-28T02:45:47.850Z,1.50
2023-05-28T02:48:14.568Z,1.65
2023-05-28T02:50:41.208Z,1.70
2023-05-28T02:53:07.850Z,1.52
2023-05-28T02:55:34.453Z,1.50
2023-05-28T02:58:01.141Z,1.70
2023-05-28T03:00:27.832Z,1.58
2023-05-28T03:02:54.603Z,1.60
2023-05-28T03:05:21.487Z,1.50
2023-05-28T03:07:48.156Z,1.58
2023-05-28T03:10:14.793Z,1.45
2023-05-28T03:12:41.450Z,1.60
2023-05-28T03:15:08.647Z,1.60
2023-05-28T03:17:35.445Z,1.80
2023-05-28T03:20:02.223Z,1.60
2023-05-28T03:22:28.893Z,1.80
2023-05-28T03:24:57.978Z,1.52
2023-05-28T03:27:24.654Z,1.55
2023-05-28T03:29:51.824Z,1.55
2023-05-28T03:32:18.451Z,1.60
2023-05-28T03:34:45.049Z,1.80
2023-05-28T03:37:11.647Z,1.60
2023-05-28T03:39:38.451Z,1.70
2023-05-28T03:42:06.704Z,1.75
2023-05-28T03:44:33.323Z,1.50
2023-05-28T03:46:59.974Z,1.65
2023-05-28T03:49:26.581Z,1.80
2023-05-28T03:51:53.281Z,1.80
2023-05-28T03:54:19.980Z,1.90
2023-05-28T03:56:46.662Z,1.58
2023-05-28T03:59:13.270Z,1.65
2023-05-28T04:01:39.883Z,1.73
2023-05-28T04:04:06.670Z,1.80
2023-05-28T04:06:33.976Z,1.70
2023-05-28T04:09:01.036Z,1.65
2023-05-28T04:11:30.957Z,1.60
2023-05-28T04:13:57.668Z,1.67
2023-05-28T04:16:25.221Z,1.67
2023-05-28T04:18:52.144Z,1.67
2023-05-28T04:21:19.139Z,1.67
2023-05-28T04:23:45.880Z,1.50
2023-05-28T04:26:12.567Z,1.80
2023-05-28T04:28:39.181Z,1.77
2023-05-28T04:31:05.932Z,1.75
2023-05-28T04:33:32.573Z,1.60
2023-05-28T04:36:00.597Z,1.70
2023-05-28T04:38:34.403Z,1.77
2023-05-28T04:41:04.566Z,1.65
2023-05-28T04:43:31.297Z,2.00
2023-05-28T04:46:00.099Z,1.80
2023-05-28T04:48:26.810Z,1.75
2023-05-28T04:50:55.002Z,2.00
2023-05-28T04:53:21.759Z,1.98
2023-05-28T04:55:48.414Z,1.70
2023-05-28T04:58:15.203Z,1.70
2023-05-28T05:00:41.859Z,1.90
2023-05-28T05:03:09.771Z,1.65
2023-05-28T05:05:36.456Z,1.70
2023-05-28T05:08:03.089Z,1.88
2023-05-28T05:10:29.814Z,1.80
2023-05-28T05:12:56.676Z,2.00
2023-05-28T05:15:23.399Z,2.10
2023-05-28T05:17:50.163Z,1.70
2023-05-28T05:20:18.173Z,1.85
2023-05-28T05:22:45.057Z,1.75
2023-05-28T05:25:11.719Z,1.67
2023-05-28T05:27:38.340Z,1.70
2023-05-28T05:30:06.592Z,1.80
2023-05-28T05:32:33.393Z,1.73
2023-05-28T05:35:00.106Z,1.58
2023-05-28T05:37:26.803Z,1.80
2023-05-28T05:39:53.562Z,1.73
2023-05-28T05:42:20.218Z,1.73
2023-05-28T05:44:47.598Z,1.70
2023-05-28T05:47:14.245Z,1.95
2023-05-28T05:49:40.962Z,1.73
2023-05-28T05:52:07.913Z,1.80
2023-05-28T05:54:34.684Z,1.88
2023-05-28T05:57:03.616Z,1.90
2023-05-28T05:59:30.430Z,2.00
2023-05-28T06:01:57.954Z,1.75
2023-05-28T06:04:25.400Z,1.88
2023-05-28T06:06:52.065Z,1.85
2023-05-28T06:09:19.513Z,1.60
2023-05-28T06:11:46.490Z,2.05
2023-05-28T06:14:13.222Z,2.00
2023-05-28T06:16:39.921Z,2.00
2023-05-28T06:19:07.673Z,1.80
2023-05-28T06:21:34.277Z,1.90
2023-05-28T06:24:00.925Z,2.00
2023-05-28T06:26:28.926Z,1.95
2023-05-28T06:28:56.002Z,1.98
2023-05-28T06:31:24.215Z,1.75
2023-05-28T06:33:50.965Z,2.10
2023-05-28T06:36:18.638Z,2.10
2023-05-28T06:38:45.286Z,2.10
2023-05-28T06:41:11.988Z,1.85
2023-05-28T06:43:39.349Z,2.10
2023-05-28T06:46:05.998Z,1.70
2023-05-28T06:48:32.795Z,2.05
2023-05-28T06:51:00.479Z,2.00
2023-05-28T06:53:27.130Z,1.70
2023-05-28T06:55:53.934Z,1.88
2023-05-28T06:58:20.721Z,2.08
2023-05-28T07:00:47.339Z,2.22
2023-05-28T07:03:14.011Z,1.90
2023-05-28T07:05:40.690Z,1.80
2023-05-28T07:08:08.218Z,1.70
2023-05-28T07:10:34.850Z,2.05
2023-05-28T07:13:01.464Z,1.98
2023-05-28T07:15:28.345Z,2.00
2023-05-28T07:17:55.286Z,1.88
2023-05-28T07:20:22.048Z,2.08
2023-05-28T07:22:48.662Z,2.17
2023-05-28T07:25:15.406Z,2.00
2023-05-28T07:27:42.007Z,1.90
2023-05-28T07:30:09.467Z,2.10
2023-05-28T07:32:36.145Z,2.17
2023-05-28T07:35:02.827Z,2.10
2023-05-28T07:37:29.486Z,1.90
2023-05-28T07:39:56.465Z,2.42
2023-05-28T07:42:23.105Z,2.22
2023-05-28T07:44:49.713Z,2.28
2023-05-28T07:47:16.863Z,2.20
2023-05-28T07:49:43.527Z,2.17
2023-05-28T07:52:10.582Z,2.40
2023-05-28T07:54:37.600Z,2.33
2023-05-28T07:57:04.581Z,2.17
2023-05-28T07:59:31.596Z,2.20
2023-05-28T08:01:58.294Z,2.00
2023-05-28T08:04:25.052Z,2.05
2023-05-28T08:06:51.764Z,2.40
2023-05-28T08:09:18.750Z,2.45
2023-05-28T08:11:45.728Z,2.10
2023-05-28T08:14:12.392Z,2.10
2023-05-28T08:16:39.168Z,2.50
2023-05-28T08:19:06.071Z,2.30
2023-05-28T08:21:32.777Z,2.40
2023-05-28T08:23:59.521Z,2.45
2023-05-28T08:26:26.629Z,2.30
2023-05-28T08:28:53.320Z,2.28
2023-05-28T08:31:20.022Z,2.35
2023-05-28T08:33:46.737Z,2.10
2023-05-28T08:36:13.381Z,2.38
2023-05-28T08:38:40.030Z,2.35
2023-05-28T08:41:08.610Z,2.50
2023-05-28T08:43:35.301Z,2.33
2023-05-28T08:46:02.024Z,2.45
2023-05-28T08:48:32.010Z,2.47
2023-05-28T08:50:58.665Z,2.50
2023-05-28T08:53:30.497Z,2.20
2023-05-28T08:55:58.278Z,2.60
2023-05-28T08:58:25.674Z,2.63
2023-05-28T09:00:52.598Z,2.30
2023-05-28T09:03:19.340Z,2.28
2023-05-28T09:05:46.139Z,2.10
2023-05-28T09:08:14.376Z,2.35
2023-05-28T09:10:41.858Z,2.40
2023-05-28T09:13:08.641Z,2.40
2023-05-28T09:15:37.208Z,2.40
2023-05-28T09:18:05.826Z,2.30
2023-05-28T09:20:33.297Z,2.20
2023-05-28T09:23:01.908Z,2.22
2023-05-28T09:25:29.809Z,2.30
2023-05-28T09:27:57.654Z,2.33
2023-05-28T09:30:25.650Z,2.50
2023-05-28T09:33:06.439Z,2.50
2023-05-28T09:35:33.989Z,2.40
2023-05-28T09:38:05.794Z,2.85
2023-05-28T09:40:32.832Z,2.47
2023-05-28T09:42:59.497Z,2.45
2023-05-28T09:45:28.383Z,2.40
2023-05-28T09:47:55.672Z,2.35
2023-05-28T09:50:22.386Z,2.40
2023-05-28T09:52:49.146Z,2.63
2023-05-28T09:55:19.773Z,2.30
2023-05-28T09:57:48.130Z,2.13
2023-05-28T10:00:23.464Z,2.35
2023-05-28T10:03:29.681Z,2.60
2023-05-28T10:06:06.792Z,2.60
2023-05-28T10:08:38.961Z,2.80
2023-05-28T10:11:16.372Z,2.42
2023-05-28T10:13:43.991Z,2.53
2023-05-28T10:16:11.096Z,2.65
2023-05-28T10:18:39.614Z,2.50
2023-05-28T10:21:08.697Z,2.65
2023-05-28T10:23:36.862Z,2.72
2023-05-28T10:26:04.169Z,2.58
2023-05-28T10:28:31.746Z,2.60
2023-05-28T10:31:07.171Z,2.72
2023-05-28T10:33:44.383Z,2.70
2023-05-28T10:36:15.618Z,2.75
2023-05-28T10:38:44.827Z,2.88
2023-05-28T10:41:11.861Z,2.97
2023-05-28T10:43:46.877Z,2.78
2023-05-28T10:46:37.074Z,2.88
2023-05-28T10:49:06.384Z,2.63
2023-05-28T10:52:04.373Z,2.60
2023-05-28T10:54:31.023Z,2.55
2023-05-28T10:57:21.782Z,2.30
2023-05-28T10:59:49.649Z,2.63
2023-05-28T11:02:23.513Z,2.63
2023-05-28T11:04:55.248Z,2.60
2023-05-28T11:07:23.387Z,2.80
2023-05-28T11:09:51.801Z,2.80
2023-05-28T11:12:20.503Z,2.63
2023-05-28T11:14:48.615Z,2.75
2023-05-28T11:17:15.450Z,2.58
2023-05-28T11:19:47.240Z,2.53
2023-05-28T11:22:15.843Z,2.40
2023-05-28T11:25:06.842Z,2.40
2023-05-28T11:27:36.356Z,2.60
2023-05-28T11:30:09.643Z,2.50
2023-05-28T11:32:36.732Z,2.50
2023-05-28T11:35:06.581Z,2.60
2023-05-28T11:37:36.094Z,2.67
2023-05-28T11:40:11.063Z,2.70
2023-05-28T11:42:42.944Z,2.58
2023-05-28T11:45:11.087Z,2.78
2023-05-28T11:47:38.709Z,2.90
2023-05-28T11:50:10.074Z,2.90
2023-05-28T11:52:36.890Z,3.00
2023-05-28T11:55:04.621Z,2.65
2023-05-28T11:57:38.322Z,2.92
2023-05-28T12:00:17.297Z,2.47
2023-05-28T12:02:48.392Z,2.75
2023-05-28T12:05:16.862Z,2.90
2023-05-28T12:07:48.584Z,2.60
2023-05-28T12:10:19.416Z,2.80
2023-05-28T12:12:47.917Z,2.53
2023-05-28T12:15:15.900Z,2.42
2023-05-28T12:17:46.245Z,2.28
2023-05-28T12:20:14.754Z,2.42
2023-05-28T12:22:41.497Z,2.22
2023-05-28T12:25:08.734Z,2.40
2023-05-28T12:27:36.860Z,2.30
2023-05-28T12:30:07.856Z,2.47
2023-05-28T12:32:37.626Z,2.45
2023-05-28T12:35:04.568Z,2.38
2023-05-28T12:37:31.351Z,2.30
2023-05-28T12:39:57.958Z,2.42
2023-05-28T12:42:24.620Z,2.25
2023-05-28T12:44:51.257Z,2.40
2023-05-28T12:47:17.968Z,2.17
2023-05-28T12:49:45.902Z,2.03
2023-05-28T12:52:12.523Z,2.10
2023-05-28T12:54:39.145Z,2.22
2023-05-28T12:57:06.788Z,2.17
2023-05-28T12:59:33.564Z,2.28
2023-05-28T13:02:00.198Z,2.20
2023-05-28T13:04:26.883Z,2.38
2023-05-28T13:06:54.917Z,2.55
2023-05-28T13:09:21.705Z,2.33
2023-05-28T13:11:48.626Z,2.30
2023-05-28T13:14:15.694Z,2.70
2023-05-28T13:16:42.462Z,2.65
2023-05-28T13:19:09.108Z,2.72
2023-05-28T13:21:38.447Z,2.80
2023-05-28T13:24:07.231Z,3.13
2023-05-28T13:26:36.880Z,3.10
2023-05-28T13:29:07.778Z,2.90
2023-05-28T13:31:35.281Z,3.22
2023-05-28T13:34:02.502Z,3.22
2023-05-28T13:36:31.159Z,3.17
2023-05-28T13:38:58.303Z,3.25
2023-05-28T13:41:26.149Z,3.80
2023-05-28T13:43:56.663Z,3.72
2023-05-28T13:46:27.872Z,3.80
2023-05-28T13:48:55.003Z,3.50
2023-05-28T13:51:22.004Z,3.42
2023-05-28T13:53:49.521Z,3.45
2023-05-28T13:56:16.430Z,3.33
2023-05-28T13:58:43.087Z,3.80
2023-05-28T14:01:09.887Z,4.10
2023-05-28T14:03:36.806Z,3.70
2023-05-28T14:06:04.858Z,3.90
2023-05-28T14:08:31.589Z,4.20
2023-05-28T14:10:58.195Z,3.70
2023-05-28T14:13:29.146Z,3.85
2023-05-28T14:15:56.272Z,3.25
2023-05-28T14:18:23.131Z,3.50
2023-05-28T14:20:49.808Z,2.83
2023-05-28T14:23:16.631Z,3.03
2023-05-28T14:25:43.353Z,3.25
2023-05-28T14:28:12.354Z,3.28
2023-05-28T14:30:39.629Z,3.40
2023-05-28T14:33:06.360Z,3.72
2023-05-28T14:35:33.546Z,3.30
2023-05-28T14:38:00.200Z,3.85
2023-05-28T14:40:26.884Z,3.75
2023-05-28T14:42:53.896Z,3.47
2023-05-28T14:45:20.717Z,3.80
2023-05-28T14:47:47.431Z,3.80
2023-05-28T14:50:14.248Z,3.75
2023-05-28T14:52:42.475Z,3.70
2023-05-28T14:55:09.382Z,3.70
2023-05-28T14:57:37.555Z,3.55
2023-05-28T15:00:08.162Z,3.78
2023-05-28T15:02:35.715Z,3.67
2023-05-28T15:05:04.715Z,3.70
2023-05-28T15:07:34.505Z,3.60
2023-05-28T15:10:01.209Z,3.95
2023-05-28T15:12:28.105Z,4.22
2023-05-28T15:14:54.839Z,4.00
2023-05-28T15:17:22.201Z,3.58
2023-05-28T15:19:49.750Z,3.80
2023-05-28T15:22:17.437Z,3.28
2023-05-28T15:24:44.346Z,3.00
2023-05-28T15:27:11.214Z,2.75
2023-05-28T15:29:40.433Z,2.55
2023-05-28T15:32:08.743Z,2.40
2023-05-28T15:34:35.783Z,2.30
2023-05-28T15:37:02.935Z,2.33
2023-05-28T15:39:29.874Z,2.10
2023-05-28T15:41:58.150Z,2.33
2023-05-28T15:44:25.020Z,2.78
2023-05-28T15:46:51.849Z,2.38
2023-05-28T15:49:18.560Z,2.60
2023-05-28T15:51:45.317Z,2.38
2023-05-28T15:54:13.824Z,2.38
2023-05-28T15:56:40.872Z,2.50
2023-05-28T15:59:07.579Z,2.28
2023-05-28T16:01:34.325Z,2.30
2023-05-28T16:04:01.403Z,2.67
2023-05-28T16:06:28.125Z,2.30
2023-05-28T16:08:54.895Z,2.13
2023-05-28T16:11:25.303Z,2.30
2023-05-28T16:13:55.326Z,2.42
2023-05-28T16:16:23.058Z,2.65
2023-05-28T16:18:50.489Z,2.63
2023-05-28T16:21:17.246Z,2.88
2023-05-28T16:23:43.988Z,2.75
2023-05-28T16:26:11.494Z,2.47
2023-05-28T16:28:38.513Z,2.40
2023-05-28T16:31:05.794Z,2.20
2023-05-28T16:33:32.714Z,2.20
2023-05-28T16:35:59.794Z,1.90
2023-05-28T16:38:28.017Z,2.30
2023-05-28T16:40:54.865Z,2.30
2023-05-28T16:43:21.821Z,2.00
2023-05-28T16:45:48.609Z,2.30
2023-05-28T16:48:15.637Z,2.10
2023-05-28T16:50:42.429Z,2.22
2023-05-28T16:53:11.940Z,2.40
2023-05-28T16:55:39.503Z,2.30
2023-05-28T16:58:07.129Z,2.35
2023-05-28T17:00:33.801Z,2.28
2023-05-28T17:03:00.560Z,2.15
2023-05-28T17:05:27.375Z,1.90
2023-05-28T17:07:54.162Z,2.22
2023-05-28T17:10:20.889Z,2.30
2023-05-28T17:12:47.574Z,2.08
2023-05-28T17:15:14.328Z,2.00
2023-05-28T17:17:41.026Z,1.85
2023-05-28T17:20:11.197Z,2.00
2023-05-28T17:22:40.519Z,1.77
2023-05-28T17:25:07.758Z,1.95
2023-05-28T17:27:34.442Z,1.90
2023-05-28T17:30:01.480Z,1.92
2023-05-28T17:32:28.172Z,2.10
2023-05-28T17:34:54.789Z,2.00
2023-05-28T17:37:22.546Z,2.10
2023-05-28T17:39:49.154Z,2.03
2023-05-28T17:42:17.214Z,2.00
2023-05-28T17:44:43.854Z,1.92
2023-05-28T17:47:11.058Z,2.08
2023-05-28T17:49:37.895Z,2.00
2023-05-28T17:52:04.773Z,1.85
2023-05-28T17:54:31.348Z,2.00
2023-05-28T17:56:58.609Z,1.90
2023-05-28T17:59:25.395Z,1.80
2023-05-28T18:01:52.091Z,2.17
2023-05-28T18:04:18.814Z,1.70
2023-05-28T18:06:46.031Z,2.05
2023-05-28T18:09:12.681Z,1.85
2023-05-28T18:11:39.308Z,1.83
2023-05-28T18:14:05.931Z,1.90
2023-05-28T18:16:32.623Z,2.05
2023-05-28T18:19:02.867Z,1.95
2023-05-28T18:21:30.779Z,1.70
2023-05-28T18:24:07.002Z,2.00
2023-05-28T18:26:33.681Z,1.73
2023-05-28T18:29:00.316Z,1.90
2023-05-28T18:31:27.031Z,1.88
2023-05-28T18:33:53.764Z,2.00
2023-05-28T18:36:20.541Z,1.95
2023-05-28T18:38:47.172Z,1.80
2023-05-28T18:41:13.862Z,2.25
2023-05-28T18:43:40.493Z,2.00
2023-05-28T18:46:09.991Z,1.90
2023-05-28T18:48:37.094Z,1.88
2023-05-28T18:51:05.371Z,2.10
2023-05-28T18:53:36.168Z,1.88
2023-05-28T18:56:03.621Z,1.90
2023-05-28T18:58:30.330Z,2.08
2023-05-28T19:00:57.103Z,1.92
2023-05-28T19:03:23.929Z,1.98
2023-05-28T19:05:50.681Z,1.98
2023-05-28T19:08:17.442Z,1.85
2023-05-28T19:10:44.124Z,1.75
2023-05-28T19:13:10.706Z,1.80
2023-05-28T19:15:37.499Z,2.00
2023-05-28T19:18:04.215Z,1.80
2023-05-28T19:20:31.140Z,1.70
2023-05-28T19:22:57.765Z,1.90
2023-05-28T19:25:24.449Z,1.75
2023-05-28T19:27:51.127Z,1.90
2023-05-28T19:30:17.733Z,1.85
2023-05-28T19:32:44.394Z,1.80
2023-05-28T19:35:11.437Z,2.15
2023-05-28T19:37:38.229Z,2.03
2023-05-28T19:40:06.391Z,1.75
2023-05-28T19:42:34.395Z,1.83
2023-05-28T19:45:02.426Z,1.90
2023-05-28T19:47:29.584Z,1.80
2023-05-28T19:49:56.409Z,1.75
2023-05-28T19:52:23.120Z,1.92
2023-05-28T19:54:49.771Z,1.80
2023-05-28T19:57:16.563Z,1.70
2023-05-28T19:59:43.287Z,2.10
2023-05-28T20:02:10.082Z,1.80
2023-05-28T20:04:38.617Z,1.88
2023-05-28T20:07:06.282Z,1.83
2023-05-28T20:09:32.925Z,1.80
2023-05-28T20:11:59.544Z,1.83
2023-05-28T20:14:26.742Z,1.80
2023-05-28T20:16:53.378Z,1.92
2023-05-28T20:19:25.318Z,1.70
2023-05-28T20:21:52.413Z,1.80
2023-05-28T20:24:19.396Z,1.80
2023-05-28T20:26:46.693Z,2.30
2023-05-28T20:29:15.169Z,1.92
2023-05-28T20:31:41.846Z,1.70
2023-05-28T20:34:12.838Z,2.00
2023-05-28T20:36:39.678Z,1.80
2023-05-28T20:39:06.338Z,1.90
2023-05-28T20:41:33.030Z,1.75
2023-05-28T20:43:59.986Z,1.90
2023-05-28T20:46:26.648Z,1.92
2023-05-28T20:48:53.348Z,1.70
2023-05-28T20:51:19.958Z,1.60
2023-05-28T20:53:46.753Z,1.70
2023-05-28T20:56:13.453Z,1.75
2023-05-28T20:58:40.091Z,2.20
2023-05-28T21:01:06.764Z,2.00
2023-05-28T21:03:33.620Z,1.73
2023-05-28T21:06:00.788Z,1.75
2023-05-28T21:08:27.421Z,1.60
2023-05-28T21:10:54.052Z,1.80
2023-05-28T21:13:22.373Z,1.80
2023-05-28T21:15:49.095Z,1.80
2023-05-28T21:18:15.779Z,1.70
2023-05-28T21:20:42.459Z,1.88
2023-05-28T21:23:09.079Z,1.70
2023-05-28T21:25:36.041Z,1.70
2023-05-28T21:28:02.839Z,1.77
2023-05-28T21:30:32.100Z,1.83
2023-05-28T21:32:58.988Z,1.90
2023-05-28T21:35:25.726Z,1.40
2023-05-28T21:37:52.491Z,1.80
2023-05-28T21:40:21.863Z,1.52
2023-05-28T21:42:49.218Z,1.58
2023-05-28T21:45:16.030Z,1.63
2023-05-28T21:47:42.838Z,1.90
2023-05-28T21:50:10.000Z,1.95
2023-05-28T21:52:37.775Z,1.70
2023-05-28T21:55:06.055Z,1.80
2023-05-28T21:57:32.929Z,1.60
2023-05-28T21:59:59.557Z,1.73
2023-05-28T22:02:26.357Z,1.90
2023-05-28T22:04:55.582Z,1.70
2023-05-28T22:07:25.471Z,1.50
2023-05-28T22:09:52.536Z,1.50
2023-05-28T22:12:19.268Z,1.80
2023-05-28T22:14:46.526Z,1.70
2023-05-28T22:17:13.589Z,1.75
2023-05-28T22:19:46.464Z,1.73
2023-05-28T22:22:14.047Z,1.80
2023-05-28T22:24:47.552Z,1.70
2023-05-28T22:27:14.262Z,1.70
2023-05-28T22:29:40.901Z,1.70
2023-05-28T22:32:07.681Z,1.95
2023-05-28T22:34:34.461Z,1.65
2023-05-28T22:37:01.201Z,1.85
2023-05-28T22:39:28.601Z,1.50
2023-05-28T22:41:55.296Z,1.60
2023-05-28T22:44:22.224Z,1.50
2023-05-28T22:46:53.120Z,1.63
2023-05-28T22:49:21.731Z,1.63
2023-05-28T22:51:49.573Z,1.60
2023-05-28T22:54:18.093Z,1.30
2023-05-28T22:56:45.890Z,1.70
2023-05-28T22:59:15.610Z,1.60
2023-05-28T23:01:45.145Z,1.50
2023-05-28T23:04:12.159Z,1.60
2023-05-28T23:06:41.024Z,1.30
2023-05-28T23:09:08.563Z,1.58
2023-05-28T23:11:35.836Z,1.70
2023-05-28T23:14:02.898Z,1.60
2023-05-28T23:16:29.605Z,1.60
2023-05-28T23:18:56.994Z,1.70
2023-05-28T23:21:23.697Z,1.60
2023-05-28T23:23:50.345Z,1.50
2023-05-28T23:26:17.541Z,1.58
2023-05-28T23:28:44.234Z,1.60
2023-05-28T23:31:11.966Z,1.58
2023-05-28T23:33:39.260Z,1.50
2023-05-28T23:36:08.120Z,1.50
2023-05-28T23:38:35.469Z,1.48
2023-05-28T23:41:02.337Z,1.50
2023-05-28T23:43:29.026Z,1.73
2023-05-28T23:45:55.830Z,1.42
2023-05-28T23:48:22.748Z,1.40
2023-05-28T23:50:49.968Z,1.33
2023-05-28T23:53:16.767Z,1.50
2023-05-28T23:55:43.486Z,1.63
2023-05-28T23:58:10.137Z,1.50
